Time;durP1;ratioP1;P1;durP2;ratioP2;P2;SDS_P1;SDS_P2;PMS_P1;PMS_P2;Temp;Humidity;BMP_temperature;BMP_pressure;BME280_temperature;BME280_humidity;BME280_pressure;Samples;Min_cycle;Max_cycle;Signal;HPM_P1;HPM_P2
2024/01/06 00:01:45;;;;;;;42.95;26.58;;;;;;;5.03;100.00;99470.28;5609174;31;33997;-70
2024/01/06 00:04:48;;;;;;;37.28;25.40;;;;;;;4.88;100.00;99472.63;5609849;31;34652;-73
2024/01/06 00:08:03;;;;;;;38.53;25.70;;;;;;;4.73;100.00;99474.16;5609886;31;34165;-72
2024/01/06 00:11:06;;;;;;;38.70;25.83;;;;;;;4.68;100.00;99466.75;5609913;31;33945;-72
2024/01/06 00:14:15;;;;;;;41.63;26.33;;;;;;;4.74;100.00;99463.47;5609778;31;34245;-72
2024/01/06 00:17:18;;;;;;;41.25;26.37;;;;;;;4.82;100.00;99467.97;5609692;31;34705;-72
2024/01/06 00:20:21;;;;;;;40.78;26.48;;;;;;;4.92;100.00;99455.56;5609762;31;34029;-71
2024/01/06 00:23:24;;;;;;;39.95;26.10;;;;;;;4.99;100.00;99458.38;5609722;31;33651;-71
2024/01/06 00:26:29;;;;;;;41.75;26.48;;;;;;;5.01;100.00;99452.00;5608821;31;34091;-72
2024/01/06 00:29:33;;;;;;;37.35;25.00;;;;;;;5.09;100.00;99454.69;5596291;31;33924;-73
2024/01/06 00:32:36;;;;;;;40.53;25.55;;;;;;;5.11;100.00;99444.03;5609668;31;34066;-74
2024/01/06 00:35:40;;;;;;;41.92;26.17;;;;;;;4.97;100.00;99449.84;5609656;31;34775;-72
2024/01/06 00:38:43;;;;;;;40.10;25.25;;;;;;;4.72;100.00;99457.56;5609596;31;34012;-71
2024/01/06 00:41:46;;;;;;;43.20;26.45;;;;;;;4.63;100.00;99447.16;5609093;31;34710;-72
2024/01/06 00:44:49;;;;;;;40.12;25.92;;;;;;;4.54;100.00;99442.81;5609340;31;34287;-72
2024/01/06 00:47:52;;;;;;;40.75;26.75;;;;;;;4.46;100.00;99429.59;5608743;31;34796;-72
2024/01/06 00:50:56;;;;;;;39.75;26.33;;;;;;;4.34;100.00;99436.91;5608743;31;34204;-71
2024/01/06 00:53:59;;;;;;;43.15;26.77;;;;;;;4.27;100.00;99430.59;5609404;31;33975;-71
2024/01/06 00:57:03;;;;;;;42.65;25.70;;;;;;;4.18;100.00;99440.19;5608892;31;34020;-71
2024/01/06 01:00:07;;;;;;;40.12;25.95;;;;;;;4.10;100.00;99424.38;5608952;31;34340;-71
2024/01/06 01:03:10;;;;;;;43.33;26.15;;;;;;;4.05;100.00;99423.19;5608590;31;34805;-71
2024/01/06 01:06:14;;;;;;;39.92;26.37;;;;;;;4.10;100.00;99421.75;5609241;31;34077;-73
2024/01/06 01:09:17;;;;;;;41.37;27.23;;;;;;;4.22;100.00;99431.03;5609731;31;34027;-71
2024/01/06 01:12:20;;;;;;;43.40;27.27;;;;;;;4.28;100.00;99429.63;5609322;31;34021;-71
2024/01/06 01:15:22;;;;;;;42.62;27.05;;;;;;;4.21;100.00;99432.00;5608863;31;35188;-71
2024/01/06 01:18:26;;;;;;;40.45;26.70;;;;;;;4.11;100.00;99422.59;5608236;31;33975;-71
2024/01/06 01:21:29;;;;;;;40.42;26.98;;;;;;;4.07;100.00;99414.16;5608939;31;34642;-71
2024/01/06 01:24:32;;;;;;;41.42;27.10;;;;;;;3.91;100.00;99421.91;5609036;31;34067;-71
2024/01/06 01:27:35;;;;;;;43.92;27.55;;;;;;;4.02;100.00;99416.41;5608939;31;34062;-71
2024/01/06 01:30:38;;;;;;;38.22;26.77;;;;;;;4.12;100.00;99413.72;5609194;31;34476;-71
2024/01/06 01:33:41;;;;;;;40.80;26.92;;;;;;;4.19;100.00;99414.78;5608971;31;34178;-70
2024/01/06 01:36:45;;;;;;;38.55;26.73;;;;;;;4.35;100.00;99418.38;5608815;31;34009;-71
2024/01/06 01:39:48;;;;;;;41.67;26.52;;;;;;;4.43;100.00;99419.41;5608798;31;34763;-71
2024/01/06 01:42:51;;;;;;;39.97;26.33;;;;;;;4.55;100.00;99424.25;5608781;31;33997;-71
2024/01/06 01:45:54;;;;;;;39.83;26.60;;;;;;;4.61;100.00;99418.41;5608846;31;34893;-71
2024/01/06 01:49:00;;;;;;;43.17;27.27;;;;;;;4.61;100.00;99420.19;5608926;31;34160;-72
2024/01/06 01:52:03;;;;;;;42.10;26.52;;;;;;;4.71;100.00;99413.03;5608729;31;34050;-72
2024/01/06 01:55:07;;;;;;;41.28;26.60;;;;;;;4.75;100.00;99401.25;5608836;31;34603;-71
2024/01/06 01:58:12;;;;;;;40.33;26.42;;;;;;;4.75;100.00;99394.19;5608739;31;34044;-72
2024/01/06 02:01:17;;;;;;;41.83;27.00;;;;;;;4.84;100.00;99392.47;5608121;31;34256;-72
2024/01/06 02:04:20;;;;;;;42.35;26.52;;;;;;;4.85;100.00;99390.63;5607933;31;33982;-72
2024/01/06 02:07:23;;;;;;;42.53;27.52;;;;;;;4.80;100.00;99385.84;5608313;31;34032;-71
2024/01/06 02:10:26;;;;;;;41.03;27.27;;;;;;;4.82;100.00;99386.53;5608308;31;34082;-71
2024/01/06 02:13:36;;;;;;;38.58;26.23;;;;;;;4.85;100.00;99375.69;5607581;31;34679;-72
2024/01/06 02:16:39;;;;;;;42.20;26.33;;;;;;;4.90;100.00;99381.31;5607724;31;35102;-72
2024/01/06 02:19:44;;;;;;;41.88;26.33;;;;;;;4.90;100.00;99383.09;5608519;31;34829;-71
2024/01/06 02:22:47;;;;;;;39.17;25.62;;;;;;;4.92;100.00;99379.34;5608261;31;34279;-72
2024/01/06 02:25:50;;;;;;;40.05;26.58;;;;;;;5.08;100.00;99378.63;5608548;31;35220;-71
2024/01/06 02:28:53;;;;;;;41.37;26.37;;;;;;;5.02;100.00;99374.81;5608426;31;34245;-71
2024/01/06 02:31:58;;;;;;;38.33;26.12;;;;;;;5.07;100.00;99371.72;5608429;31;34715;-71
2024/01/06 02:35:02;;;;;;;39.75;26.10;;;;;;;5.11;100.00;99378.31;5608453;31;34191;-71
2024/01/06 02:38:06;;;;;;;40.80;26.98;;;;;;;5.03;100.00;99373.84;5608428;31;34095;-71
2024/01/06 02:41:09;;;;;;;41.60;26.37;;;;;;;5.07;100.00;99374.34;5608398;31;33965;-71
2024/01/06 02:44:13;;;;;;;41.22;26.23;;;;;;;5.08;100.00;99368.91;5608670;31;33999;-71
2024/01/06 02:47:16;;;;;;;40.08;25.75;;;;;;;5.03;100.00;99370.38;5608203;31;34301;-72
2024/01/06 02:50:19;;;;;;;39.03;26.77;;;;;;;5.07;100.00;99364.66;5608280;31;34161;-72
2024/01/06 02:53:22;;;;;;;38.40;26.55;;;;;;;5.08;100.00;99354.97;5608441;31;34763;-72
2024/01/06 02:56:26;;;;;;;34.75;25.45;;;;;;;5.18;100.00;99351.22;5608144;31;34875;-72
2024/01/06 02:59:30;;;;;;;36.05;24.77;;;;;;;5.21;100.00;99350.09;5608513;31;34716;-72
2024/01/06 03:02:36;;;;;;;39.15;25.48;;;;;;;5.19;100.00;99344.97;5608480;31;34023;-72
2024/01/06 03:05:38;;;;;;;41.03;26.77;;;;;;;5.15;100.00;99340.19;5607952;31;34014;-72
2024/01/06 03:08:41;;;;;;;38.75;25.73;;;;;;;5.23;100.00;99340.22;5608126;31;34728;-72
2024/01/06 03:11:46;;;;;;;37.10;26.02;;;;;;;5.19;100.00;99334.47;5608042;31;34162;-72
2024/01/06 03:14:49;;;;;;;34.28;24.35;;;;;;;5.24;100.00;99333.97;5608276;31;35147;-72
2024/01/06 03:17:53;;;;;;;37.17;24.77;;;;;;;5.27;100.00;99333.69;5607690;31;34547;-72
2024/01/06 03:20:59;;;;;;;34.03;24.23;;;;;;;5.30;100.00;99328.09;5607893;31;34098;-72
2024/01/06 03:24:04;;;;;;;40.42;24.58;;;;;;;5.20;100.00;99312.44;5609135;31;34041;-72
2024/01/06 03:27:10;;;;;;;36.22;25.33;;;;;;;5.33;100.00;99309.34;5609417;31;34924;-72
2024/01/06 03:30:13;;;;;;;37.42;24.58;;;;;;;5.19;100.00;99307.34;5610347;31;35043;-72
2024/01/06 03:33:16;;;;;;;37.17;26.05;;;;;;;5.22;100.00;99313.13;5610213;31;34745;-72
2024/01/06 03:36:19;;;;;;;36.30;24.52;;;;;;;5.24;100.00;99308.50;5610426;31;35009;-72
2024/01/06 03:39:22;;;;;;;34.03;24.02;;;;;;;5.24;100.00;99313.75;5610354;31;34742;-72
2024/01/06 03:42:25;;;;;;;34.17;24.90;;;;;;;5.18;100.00;99314.41;5609398;31;35433;-73
2024/01/06 03:45:28;;;;;;;32.40;24.05;;;;;;;5.16;100.00;99311.12;5610296;31;34251;-72
2024/01/06 03:48:32;;;;;;;35.88;23.92;;;;;;;5.25;100.00;99311.97;5609013;31;35665;-72
2024/01/06 03:51:35;;;;;;;35.65;23.60;;;;;;;5.30;100.00;99322.00;5609778;31;34062;-72
2024/01/06 03:54:38;;;;;;;33.75;23.65;;;;;;;5.28;100.00;99324.00;5609958;31;34648;-72
2024/01/06 03:57:41;;;;;;;35.65;24.63;;;;;;;5.22;100.00;99328.06;5609269;31;35470;-72
2024/01/06 04:00:44;;;;;;;36.03;24.40;;;;;;;5.16;100.00;99319.00;5608930;31;34051;-72
2024/01/06 04:03:47;;;;;;;32.50;24.30;;;;;;;5.15;100.00;99333.13;5609830;31;33939;-72
2024/01/06 04:06:50;;;;;;;33.10;23.58;;;;;;;5.25;100.00;99325.94;5609771;31;35211;-72
2024/01/06 04:09:54;;;;;;;32.40;23.15;;;;;;;5.24;100.00;99353.22;5608745;31;33967;-72
2024/01/06 04:12:57;;;;;;;32.60;23.10;;;;;;;5.21;100.00;99350.91;5609610;31;33990;-72
2024/01/06 04:16:00;;;;;;;31.27;23.50;;;;;;;5.27;100.00;99357.34;5609577;31;34671;-72
2024/01/06 04:19:03;;;;;;;34.65;24.50;;;;;;;5.15;100.00;99341.03;5609462;31;34224;-73
2024/01/06 04:22:06;;;;;;;35.28;24.00;;;;;;;5.24;100.00;99345.31;5609285;31;33994;-73
2024/01/06 04:25:09;;;;;;;33.28;24.20;;;;;;;5.29;100.00;99334.31;5609613;31;34048;-74
2024/01/06 04:28:12;;;;;;;33.55;24.52;;;;;;;5.02;100.00;99339.81;5609634;31;34039;-74
2024/01/06 04:31:16;;;;;;;34.65;25.30;;;;;;;4.99;100.00;99329.59;5609987;31;33923;-74
2024/01/06 04:34:19;;;;;;;35.33;24.83;;;;;;;4.95;100.00;99350.12;5609057;31;34654;-74
2024/01/06 04:37:22;;;;;;;36.20;25.55;;;;;;;4.95;100.00;99355.38;5595703;31;34758;-74
2024/01/06 04:40:25;;;;;;;35.50;25.92;;;;;;;4.88;100.00;99357.00;5609562;31;34449;-75
2024/01/06 04:43:29;;;;;;;36.45;26.12;;;;;;;4.89;100.00;99357.84;5610043;31;33063;-75
2024/01/06 04:46:33;;;;;;;35.47;25.50;;;;;;;4.87;100.00;99347.47;5608646;31;34783;-75
2024/01/06 04:49:40;;;;;;;37.15;27.17;;;;;;;4.93;100.00;99336.34;5609211;31;34221;-74
2024/01/06 04:52:44;;;;;;;34.00;25.88;;;;;;;4.93;100.00;99346.03;5609376;31;34187;-74
2024/01/06 04:55:48;;;;;;;35.80;25.50;;;;;;;4.83;100.00;99333.00;5609196;31;34676;-74
2024/01/06 04:58:53;;;;;;;33.60;25.70;;;;;;;4.90;100.00;99338.44;5609298;31;34853;-74
2024/01/06 05:01:57;;;;;;;37.50;26.75;;;;;;;4.94;100.00;99332.69;5609363;31;34033;-74
2024/01/06 05:05:01;;;;;;;38.22;26.58;;;;;;;4.92;100.00;99325.97;5608519;31;34806;-74
2024/01/06 05:08:05;;;;;;;37.42;27.00;;;;;;;4.92;100.00;99332.06;5609250;31;34054;-75
2024/01/06 05:11:14;;;;;;;36.40;25.62;;;;;;;4.88;100.00;99335.97;5608300;31;35058;-75
2024/01/06 05:14:19;;;;;;;37.65;26.83;;;;;;;4.86;100.00;99332.69;5609217;31;34631;-75
2024/01/06 05:17:23;;;;;;;37.08;26.62;;;;;;;4.77;100.00;99328.34;5609034;31;34218;-74
2024/01/06 05:20:25;;;;;;;39.42;26.90;;;;;;;4.84;100.00;99321.50;5609115;31;34314;-73
2024/01/06 05:23:29;;;;;;;37.05;27.00;;;;;;;4.73;100.00;99322.59;5609063;31;34056;-73
2024/01/06 05:26:32;;;;;;;40.65;28.23;;;;;;;4.74;100.00;99318.19;5609320;31;34018;-73
2024/01/06 05:29:35;;;;;;;37.97;28.00;;;;;;;4.73;100.00;99325.22;5609247;31;34569;-73
2024/01/06 05:32:39;;;;;;;40.00;26.92;;;;;;;4.80;100.00;99318.34;5608924;31;34438;-73
2024/01/06 05:35:46;;;;;;;34.92;27.27;;;;;;;4.86;100.00;99330.03;5608849;31;34001;-73
2024/01/06 05:38:50;;;;;;;37.60;27.52;;;;;;;4.91;100.00;99316.44;5608951;31;35017;-73
2024/01/06 05:41:55;;;;;;;36.53;27.45;;;;;;;4.82;100.00;99326.91;5608948;31;34081;-73
2024/01/06 05:45:01;;;;;;;39.45;26.48;;;;;;;4.91;100.00;99333.03;5608686;31;34643;-73
2024/01/06 05:48:08;;;;;;;36.67;27.60;;;;;;;4.87;100.00;99333.50;5608812;31;32575;-73
2024/01/06 05:51:13;;;;;;;37.13;27.33;;;;;;;4.86;100.00;99337.09;5608157;31;33747;-73
2024/01/06 05:54:22;;;;;;;33.42;26.33;;;;;;;4.93;100.00;99346.03;5608711;31;34910;-74
2024/01/06 05:57:26;;;;;;;33.22;24.23;;;;;;;5.01;100.00;99343.41;5607980;31;34539;-74
2024/01/06 06:00:46;;;;;;;33.38;24.35;;;;;;;4.94;100.00;99352.94;5608747;31;34751;-74
2024/01/06 06:03:50;;;;;;;35.30;25.52;;;;;;;4.97;100.00;99358.69;5608828;31;35096;-73
2024/01/06 06:06:59;;;;;;;36.97;25.27;;;;;;;4.92;100.00;99363.59;5607995;31;34742;-74
2024/01/06 06:10:08;;;;;;;34.25;25.15;;;;;;;4.97;100.00;99361.31;5608047;31;34084;-74
2024/01/06 06:13:13;;;;;;;36.22;24.65;;;;;;;4.94;100.00;99355.56;5607905;31;33960;-74
2024/01/06 06:16:18;;;;;;;34.15;24.90;;;;;;;5.06;100.00;99354.28;5608672;31;33992;-75
2024/01/06 06:19:21;;;;;;;38.25;26.45;;;;;;;5.06;100.00;99352.47;5608376;31;35043;-74
2024/01/06 06:22:29;;;;;;;37.67;27.23;;;;;;;4.95;100.00;99357.19;5607749;31;34247;-74
2024/01/06 06:25:32;;;;;;;38.75;27.42;;;;;;;4.88;100.00;99348.28;5608610;31;34290;-74
2024/01/06 06:28:35;;;;;;;36.70;27.17;;;;;;;4.87;100.00;99350.09;5608508;31;34772;-74
2024/01/06 06:31:42;;;;;;;37.05;26.75;;;;;;;4.92;100.00;99365.38;5608379;31;34997;-75
2024/01/06 06:34:46;;;;;;;38.22;28.27;;;;;;;4.87;100.00;99365.03;5608336;31;33971;-74
2024/01/06 06:37:49;;;;;;;38.40;27.67;;;;;;;4.88;100.00;99369.31;5608358;31;34144;-74
2024/01/06 06:40:53;;;;;;;37.95;28.77;;;;;;;4.88;100.00;99353.56;5607605;31;34974;-74
2024/01/06 06:44:00;;;;;;;36.65;28.60;;;;;;;4.88;100.00;99364.88;5608593;31;34646;-74
2024/01/06 06:47:03;;;;;;;40.63;29.63;;;;;;;4.85;100.00;99364.34;5608329;31;34097;-74
2024/01/06 06:50:06;;;;;;;40.42;28.55;;;;;;;4.89;100.00;99366.50;5608228;31;35036;-74
2024/01/06 06:53:12;;;;;;;38.47;27.08;;;;;;;4.92;100.00;99355.72;5607969;31;35328;-74
2024/01/06 06:56:17;;;;;;;39.17;26.98;;;;;;;4.94;100.00;99345.03;5607454;31;33951;-75
2024/01/06 06:59:24;;;;;;;35.95;25.58;;;;;;;4.88;100.00;99341.25;5607567;31;34062;-74
2024/01/06 07:02:29;;;;;;;34.33;26.45;;;;;;;4.86;100.00;99351.06;5608110;31;34802;-74
2024/01/06 07:05:33;;;;;;;34.20;25.00;;;;;;;4.90;100.00;99356.81;5608119;31;34832;-74
2024/01/06 07:08:38;;;;;;;32.88;25.17;;;;;;;4.94;100.00;99343.22;5608247;31;34212;-74
2024/01/06 07:11:43;;;;;;;34.10;25.25;;;;;;;4.88;100.00;99351.75;5607365;31;34679;-74
2024/01/06 07:14:48;;;;;;;33.08;25.10;;;;;;;4.97;100.00;99347.34;5608152;31;34084;-73
2024/01/06 07:17:55;;;;;;;36.92;24.85;;;;;;;4.89;100.00;99353.37;5607497;31;33789;-73
2024/01/06 07:20:58;;;;;;;33.00;24.00;;;;;;;4.90;100.00;99368.16;5607920;31;34111;-74
2024/01/06 07:24:02;;;;;;;33.38;23.17;;;;;;;5.01;100.00;99359.19;5607493;31;34198;-74
2024/01/06 07:27:06;;;;;;;30.88;23.20;;;;;;;5.09;100.00;99349.53;5607609;31;34038;-73
2024/01/06 07:30:12;;;;;;;33.67;23.65;;;;;;;4.97;100.00;99348.19;5607803;31;33995;-73
2024/01/06 07:33:19;;;;;;;34.05;24.02;;;;;;;4.98;100.00;99341.12;5594199;31;34175;-73
2024/01/06 07:36:24;;;;;;;37.70;23.77;;;;;;;4.99;100.00;99348.81;5607946;31;34027;-73
2024/01/06 07:39:29;;;;;;;34.20;23.83;;;;;;;4.96;100.00;99345.69;5607626;31;34725;-74
2024/01/06 07:42:32;;;;;;;34.22;24.45;;;;;;;4.95;100.00;99341.41;5607052;31;34055;-74
2024/01/06 07:45:35;;;;;;;35.58;24.98;;;;;;;4.95;100.00;99355.38;5607583;31;34003;-73
2024/01/06 07:48:43;;;;;;;34.50;24.25;;;;;;;5.00;100.00;99347.84;5607527;31;34684;-73
2024/01/06 07:51:48;;;;;;;31.33;21.62;;;;;;;4.97;100.00;99335.03;5606775;31;33992;-73
2024/01/06 07:54:51;;;;;;;32.92;23.87;;;;;;;4.98;100.00;99341.12;5607195;31;34357;-73
2024/01/06 07:57:59;;;;;;;31.15;23.23;;;;;;;5.03;100.00;99338.84;5606554;31;34126;-73
2024/01/06 08:01:02;;;;;;;35.55;24.10;;;;;;;5.00;100.00;99336.50;5606512;31;34339;-73
2024/01/06 08:04:07;;;;;;;27.48;21.80;;;;;;;5.10;100.00;99350.34;5607048;31;35067;-72
2024/01/06 08:07:13;;;;;;;31.83;23.08;;;;;;;5.09;100.00;99343.44;5606217;31;35094;-73
2024/01/06 08:10:20;;;;;;;30.95;23.40;;;;;;;5.02;100.00;99337.19;5607896;31;34086;-72
2024/01/06 08:13:23;;;;;;;35.08;22.77;;;;;;;5.00;100.00;99329.44;5609605;31;34296;-73
2024/01/06 08:16:27;;;;;;;33.72;23.08;;;;;;;4.99;100.00;99350.63;5609008;31;34175;-73
2024/01/06 08:19:31;;;;;;;31.90;22.60;;;;;;;5.13;100.00;99348.22;5609694;31;34927;-74
2024/01/06 08:22:34;;;;;;;31.62;21.92;;;;;;;5.10;100.00;99356.44;5609079;31;34660;-73
2024/01/06 08:25:37;;;;;;;29.65;21.83;;;;;;;5.20;100.00;99356.31;5609744;31;34414;-73
2024/01/06 08:28:41;;;;;;;29.30;21.35;;;;;;;5.16;100.00;99355.00;5609976;31;35470;-73
2024/01/06 08:31:44;;;;;;;28.42;20.92;;;;;;;5.16;100.00;99360.25;5608725;31;34033;-72
2024/01/06 08:34:49;;;;;;;31.50;22.33;;;;;;;5.11;100.00;99362.53;5609448;31;33971;-72
2024/01/06 08:37:55;;;;;;;33.60;22.52;;;;;;;5.07;100.00;99374.34;5608887;31;34144;-72
2024/01/06 08:41:01;;;;;;;32.40;22.10;;;;;;;5.15;100.00;99363.84;5608828;31;33981;-73
2024/01/06 08:44:06;;;;;;;31.80;21.65;;;;;;;5.13;100.00;99357.94;5609560;31;33770;-73
2024/01/06 08:47:12;;;;;;;33.22;22.50;;;;;;;5.15;100.00;99362.06;5608668;31;34697;-73
2024/01/06 08:50:20;;;;;;;28.87;21.27;;;;;;;5.19;100.00;99357.28;5596322;31;33975;-74
2024/01/06 08:53:26;;;;;;;29.27;21.10;;;;;;;5.24;100.00;99358.47;5609569;31;33320;-73
2024/01/06 08:56:28;;;;;;;31.40;21.95;;;;;;;5.30;100.00;99361.44;5609709;31;34330;-73
2024/01/06 08:59:40;;;;;;;32.13;20.88;;;;;;;5.25;100.00;99368.00;5609302;31;33976;-73
2024/01/06 09:02:43;;;;;;;29.35;20.08;;;;;;;5.25;100.00;99367.19;5608547;31;34837;-73
2024/01/06 09:06:06;;;;;;;31.15;20.52;;;;;;;5.26;100.00;99368.84;5608530;31;34599;-73
2024/01/06 09:09:19;;;;;;;28.62;20.10;;;;;;;5.29;100.00;99362.44;5608736;31;34162;-73
2024/01/06 09:12:32;;;;;;;27.50;18.52;;;;;;;5.29;100.00;99365.88;5609412;31;34665;-72
2024/01/06 09:15:35;;;;;;;27.80;19.00;;;;;;;5.45;100.00;99355.44;5608571;31;34702;-72
2024/01/06 09:18:43;;;;;;;30.67;19.48;;;;;;;5.33;100.00;99350.59;5609179;31;34186;-72
2024/01/06 09:21:58;;;;;;;25.42;17.87;;;;;;;5.46;100.00;99358.88;5608665;31;34011;-72
2024/01/06 09:25:01;;;;;;;23.80;17.65;;;;;;;5.57;100.00;99342.78;5608911;31;34293;-71
2024/01/06 09:28:10;;;;;;;24.83;18.52;;;;;;;5.54;100.00;99338.69;5608487;31;34974;-72
2024/01/06 09:31:17;;;;;;;23.27;17.05;;;;;;;5.56;100.00;99339.34;5609027;31;33972;-72
2024/01/06 09:34:20;;;;;;;27.08;17.23;;;;;;;5.58;100.00;99331.28;5608077;31;34750;-73
2024/01/06 09:37:24;;;;;;;25.95;17.60;;;;;;;5.66;100.00;99329.47;5608931;31;34752;-72
2024/01/06 09:40:32;;;;;;;23.83;16.87;;;;;;;5.66;100.00;99332.09;5609121;31;34016;-72
2024/01/06 09:43:38;;;;;;;25.55;18.48;;;;;;;5.62;100.00;99333.41;5608374;31;35087;-73
2024/01/06 09:46:46;;;;;;;;;;;;;;;5.64;100.00;99328.00;5609750;31;34024;-73
2024/01/06 09:49:50;;;;;;;23.50;16.67;;;;;;;5.71;100.00;99325.56;5608791;31;34323;-72
2024/01/06 09:53:03;;;;;;;28.77;17.92;;;;;;;5.74;100.00;99319.97;5608212;31;34110;-74
2024/01/06 09:56:12;;;;;;;24.27;17.05;;;;;;;5.90;100.00;99322.66;5608460;31;34040;-74
2024/01/06 09:59:15;;;;;;;30.00;17.85;;;;;;;5.84;100.00;99318.00;5607812;31;34395;-74
2024/01/06 10:02:25;;;;;;;25.42;17.52;;;;;;;5.81;100.00;99327.03;5608990;31;34009;-74
2024/01/06 10:05:30;;;;;;;25.80;17.48;;;;;;;5.81;100.00;99323.59;5608848;31;34026;-74
2024/01/06 10:08:35;;;;;;;30.40;18.12;;;;;;;5.79;100.00;99328.19;5609038;31;34766;-75
2024/01/06 10:11:40;;;;;;;27.45;16.85;;;;;;;5.88;100.00;99335.97;5608722;31;33984;-75
2024/01/06 10:14:43;;;;;;;23.87;16.60;;;;;;;5.87;100.00;99331.69;5608629;31;34774;-73
2024/01/06 10:18:04;;;;;;;26.35;17.75;;;;;;;5.88;100.00;99325.44;5608623;31;34113;-74
2024/01/06 10:21:09;;;;;;;25.80;17.08;;;;;;;5.76;100.00;99336.44;5607867;31;34005;-75
2024/01/06 10:24:20;;;;;;;24.85;17.50;;;;;;;5.82;100.00;99333.13;5607855;31;34645;-73
2024/01/06 10:27:23;;;;;;;24.75;17.70;;;;;;;5.77;100.00;99333.59;5607716;31;33968;-73
2024/01/06 10:30:27;;;;;;;26.60;17.55;;;;;;;5.80;100.00;99332.47;5607793;31;34605;-75
2024/01/06 10:33:32;;;;;;;25.30;17.37;;;;;;;5.72;100.00;99335.06;5606669;31;33668;-74
2024/01/06 10:36:36;;;;;;;27.33;18.12;;;;;;;5.67;100.00;99328.50;5608501;31;33975;-74
2024/01/06 10:39:39;;;;;;;24.02;17.12;;;;;;;5.84;100.00;99321.47;5608193;31;34795;-75
2024/01/06 10:42:43;;;;;;;26.92;17.85;;;;;;;5.73;100.00;99303.34;5608877;31;33708;-75
2024/01/06 10:45:46;;;;;;;28.62;18.27;;;;;;;5.60;100.00;99306.47;5608994;31;34740;-75
2024/01/06 10:48:52;;;;;;;27.83;19.15;;;;;;;5.69;100.00;99296.78;5607594;31;34101;-75
2024/01/06 10:51:57;;;;;;;28.65;19.05;;;;;;;5.61;100.00;99300.22;5608542;31;34055;-75
2024/01/06 10:55:02;;;;;;;30.08;19.98;;;;;;;5.65;100.00;99293.66;5608297;31;34033;-73
2024/01/06 10:58:07;;;;;;;26.08;19.17;;;;;;;5.77;100.00;99296.75;5608395;31;34766;-74
2024/01/06 11:01:12;;;;;;;29.35;19.10;;;;;;;5.74;100.00;99294.47;5608505;31;34306;-75
2024/01/06 11:04:23;;;;;;;26.48;18.77;;;;;;;5.83;100.00;99288.22;5607922;31;34688;-75
2024/01/06 11:07:27;;;;;;;24.48;17.80;;;;;;;5.86;100.00;99287.88;5608068;31;34696;-75
2024/01/06 11:10:32;;;;;;;26.75;18.25;;;;;;;5.89;100.00;99277.06;5608200;31;34740;-75
2024/01/06 11:13:37;;;;;;;26.80;18.87;;;;;;;5.81;100.00;99265.72;5607827;31;34053;-75
2024/01/06 11:16:39;;;;;;;25.70;18.20;;;;;;;5.82;100.00;99268.16;5608156;31;34146;-74
2024/01/06 11:19:44;;;;;;;25.10;18.52;;;;;;;5.93;100.00;99253.87;5608033;31;33997;-74
2024/01/06 11:22:48;;;;;;;27.52;18.30;;;;;;;5.84;100.00;99249.56;5594166;31;34059;-74
2024/01/06 11:25:53;;;;;;;27.77;18.33;;;;;;;5.91;100.00;99242.69;5607888;31;34191;-75
2024/01/06 11:28:58;;;;;;;27.23;20.23;;;;;;;5.75;100.00;99229.50;5607732;31;34797;-74
2024/01/06 11:32:41;;;;;;;28.85;20.52;;;;;;;5.84;100.00;99234.59;5607971;31;34182;-74
2024/01/06 11:35:49;;;;;;;28.20;20.30;;;;;;;5.78;100.00;99223.91;5527409;32;33938;-74
2024/01/06 11:38:53;;;;;;;32.10;20.83;;;;;;;5.85;100.00;99227.53;5527362;32;34115;-74
2024/01/06 11:41:57;;;;;;;28.25;20.37;;;;;;;5.93;100.00;99217.03;5514582;32;35841;-74
2024/01/06 11:45:03;;;;;;;29.33;20.17;;;;;;;5.94;100.00;99211.59;5528900;32;34929;-75
2024/01/06 11:48:09;;;;;;;29.92;20.60;;;;;;;5.94;100.00;99205.50;5530153;32;34016;-74
2024/01/06 11:51:12;;;;;;;26.60;20.12;;;;;;;5.88;100.00;99201.72;5517140;32;34051;-74
2024/01/06 11:54:16;;;;;;;29.00;20.65;;;;;;;5.97;100.00;99197.28;5530136;32;34691;-75
2024/01/06 11:57:19;;;;;;;32.13;22.15;;;;;;;5.87;100.00;99194.00;5529943;32;34090;-75
2024/01/06 12:00:22;;;;;;;32.50;22.50;;;;;;;6.00;100.00;99194.31;5529649;32;34637;-75
2024/01/06 12:03:26;;;;;;;29.63;21.70;;;;;;;6.01;100.00;99182.78;5529522;32;34057;-76
2024/01/06 12:06:29;;;;;;;30.80;22.80;;;;;;;5.87;100.00;99183.47;5576670;31;35109;-77
2024/01/06 12:09:32;;;;;;;29.25;21.80;;;;;;;5.98;100.00;99185.75;5609503;31;34062;-76
2024/01/06 12:12:35;;;;;;;32.20;22.40;;;;;;;5.99;100.00;99184.78;5609871;31;34307;-74
2024/01/06 12:15:39;;;;;;;33.05;23.52;;;;;;;6.04;100.00;99182.47;5609619;31;34141;-74
2024/01/06 12:18:43;;;;;;;32.78;24.00;;;;;;;5.94;100.00;99174.75;5604866;31;152022;-73
2024/01/06 12:21:46;;;;;;;33.30;23.92;;;;;;;5.99;100.00;99182.97;5609819;31;34104;-74
2024/01/06 12:24:50;;;;;;;35.47;25.15;;;;;;;5.90;100.00;99181.34;5609877;31;34132;-73
2024/01/06 12:27:53;;;;;;;33.33;25.10;;;;;;;6.01;100.00;99180.97;5609494;31;34751;-73
2024/01/06 12:30:57;;;;;;;32.30;23.73;;;;;;;6.07;100.00;99172.41;5609167;31;33784;-73
2024/01/06 12:34:00;;;;;;;35.03;24.37;;;;;;;6.17;100.00;99163.50;5609368;31;34264;-74
2024/01/06 12:37:03;;;;;;;34.55;24.70;;;;;;;6.15;100.00;99152.31;5609199;31;34166;-74
2024/01/06 12:40:09;;;;;;;36.88;25.80;;;;;;;6.01;100.00;99153.81;5609441;31;34891;-74
2024/01/06 12:43:11;;;;;;;34.15;24.33;;;;;;;6.00;100.00;99153.00;5608795;31;33982;-73
2024/01/06 12:46:15;;;;;;;34.25;23.50;;;;;;;6.14;100.00;99158.56;5609566;31;34026;-74
2024/01/06 12:49:18;;;;;;;31.30;23.00;;;;;;;6.15;100.00;99157.59;5608680;31;33954;-75
2024/01/06 12:52:21;;;;;;;30.88;23.40;;;;;;;6.14;100.00;99156.78;5609684;31;34054;-74
2024/01/06 12:55:24;;;;;;;32.35;23.70;;;;;;;6.05;100.00;99165.69;5609095;31;34705;-74
2024/01/06 12:58:28;;;;;;;34.17;23.27;;;;;;;6.01;100.00;99183.59;5608653;31;34175;-75
2024/01/06 13:01:31;;;;;;;31.50;22.62;;;;;;;6.03;100.00;99189.53;5609507;31;33998;-74
2024/01/06 13:04:35;;;;;;;30.27;23.08;;;;;;;5.99;100.00;99182.16;5609784;31;34469;-74
2024/01/06 13:07:39;;;;;;;33.60;23.45;;;;;;;6.14;100.00;99171.75;5609226;31;34460;-75
2024/01/06 13:10:43;;;;;;;36.92;25.05;;;;;;;6.02;100.00;99177.34;5609468;31;34111;-75
2024/01/06 13:13:46;;;;;;;35.97;26.05;;;;;;;6.04;100.00;99188.56;5609782;31;33984;-74
2024/01/06 13:16:49;;;;;;;33.60;25.08;;;;;;;6.06;100.00;99183.91;5609364;31;34030;-75
2024/01/06 13:19:51;;;;;;;34.75;25.48;;;;;;;6.08;100.00;99176.69;5609358;31;34285;-74
2024/01/06 13:22:55;;;;;;;38.42;26.73;;;;;;;6.03;100.00;99179.00;5609396;31;34029;-75
2024/01/06 13:25:57;;;;;;;40.25;28.02;;;;;;;6.00;100.00;99183.78;5609304;31;34098;-75
2024/01/06 13:29:02;;;;;;;40.53;28.45;;;;;;;6.02;100.00;99184.44;5609241;31;34190;-75
2024/01/06 13:32:05;;;;;;;44.75;29.45;;;;;;;6.04;100.00;99191.19;5609237;31;34115;-75
2024/01/06 13:35:11;;;;;;;42.28;30.00;;;;;;;5.93;100.00;99188.06;5609076;31;34242;-75
2024/01/06 13:38:16;;;;;;;38.95;29.65;;;;;;;5.90;100.00;99191.03;5609197;31;34789;-75
2024/01/06 13:41:19;;;;;;;42.05;30.20;;;;;;;6.01;100.00;99180.97;5609288;31;34169;-76
2024/01/06 13:44:22;;;;;;;36.42;28.17;;;;;;;5.94;100.00;99169.47;5609310;31;34127;-74
2024/01/06 13:47:25;;;;;;;42.30;29.67;;;;;;;5.88;100.00;99174.59;5608995;31;34470;-76
2024/01/06 13:50:28;;;;;;;40.00;28.83;;;;;;;5.90;100.00;99178.72;5608987;31;34804;-76
2024/01/06 13:53:31;;;;;;;40.05;29.17;;;;;;;5.93;100.00;99181.00;5608957;31;34142;-76
2024/01/06 13:56:34;;;;;;;39.63;30.12;;;;;;;5.87;100.00;99173.75;5609174;31;33981;-75
2024/01/06 13:59:42;;;;;;;46.97;31.73;;;;;;;5.89;100.00;99169.16;5608181;31;34041;-75
2024/01/06 14:02:46;;;;;;;47.20;32.28;;;;;;;5.97;100.00;99163.03;5608166;31;34836;-75
2024/01/06 14:05:51;;;;;;;51.30;34.60;;;;;;;5.88;100.00;99164.06;5595168;31;34486;-75
2024/01/06 14:08:54;;;;;;;46.10;31.98;;;;;;;5.95;100.00;99162.41;5606871;31;33922;-75